sensor_id;sensor_type;location;lat;lon;timestamp;pressure;altitude;pressure_sealevel;temperature;humidity
84653;BME280;74883;48.882;2.092;2024-03-17T00:00:37;101815.00;;;9.14;100.00
84653;BME280;74883;48.882;2.092;2024-03-17T00:03:05;101809.81;;;9.14;100.00
84653;BME280;74883;48.882;2.092;2024-03-17T00:05:30;101810.91;;;9.06;100.00
84653;BME280;74883;48.882;2.092;2024-03-17T00:07:56;101810.19;;;9.01;100.00
84653;BME280;74883;48.882;2.092;2024-03-17T00:10:21;101817.19;;;8.99;100.00
84653;BME280;74883;48.882;2.092;2024-03-17T00:12:47;101814.56;;;9.01;100.00
84653;BME280;74883;48.882;2.092;2024-03-17T00:15:12;101811.97;;;9.01;100.00
84653;BME280;74883;48.882;2.092;2024-03-17T00:17:37;101807.72;;;8.98;100.00
84653;BME280;74883;48.882;2.092;2024-03-17T00:20:03;101816.38;;;8.99;100.00
84653;BME280;74883;48.882;2.092;2024-03-17T00:22:37;101810.31;;;8.98;100.00
84653;BME280;74883;48.882;2.092;2024-03-17T00:25:05;101818.03;;;9.00;100.00
84653;BME280;74883;48.882;2.092;2024-03-17T00:27:31;101813.78;;;8.99;100.00
84653;BME280;74883;48.882;2.092;2024-03-17T00:29:56;101812.69;;;9.04;100.00
84653;BME280;74883;48.882;2.092;2024-03-17T00:32:22;101806.41;;;9.12;100.00
84653;BME280;74883;48.882;2.092;2024-03-17T00:34:48;101807.22;;;9.14;100.00
84653;BME280;74883;48.882;2.092;2024-03-17T00:37:14;101801.06;;;9.16;100.00
84653;BME280;74883;48.882;2.092;2024-03-17T00:39:39;101803.56;;;9.19;100.00
84653;BME280;74883;48.882;2.092;2024-03-17T00:42:05;101805.09;;;9.25;100.00
84653;BME280;74883;48.882;2.092;2024-03-17T00:44:30;101798.13;;;9.27;100.00
84653;BME280;74883;48.882;2.092;2024-03-17T00:46:56;101799.78;;;9.29;100.00
84653;BME280;74883;48.882;2.092;2024-03-17T00:49:21;101796.91;;;9.37;100.00
84653;BME280;74883;48.882;2.092;2024-03-17T00:51:46;101796.72;;;9.43;100.00
84653;BME280;74883;48.882;2.092;2024-03-17T00:54:14;101798.06;;;9.53;100.00
84653;BME280;74883;48.882;2.092;2024-03-17T00:56:39;101798.72;;;9.59;100.00
84653;BME280;74883;48.882;2.092;2024-03-17T00:59:05;101797.63;;;9.65;100.00
84653;BME280;74883;48.882;2.092;2024-03-17T01:01:30;101799.22;;;9.69;100.00
84653;BME280;74883;48.882;2.092;2024-03-17T01:03:55;101796.59;;;9.70;100.00
84653;BME280;74883;48.882;2.092;2024-03-17T01:06:21;101802.47;;;9.75;100.00
84653;BME280;74883;48.882;2.092;2024-03-17T01:08:47;101794.69;;;9.75;100.00
84653;BME280;74883;48.882;2.092;2024-03-17T01:11:15;101795.28;;;9.82;100.00
84653;BME280;74883;48.882;2.092;2024-03-17T01:13:41;101788.22;;;9.86;100.00
84653;BME280;74883;48.882;2.092;2024-03-17T01:16:08;101785.53;;;9.89;100.00
84653;BME280;74883;48.882;2.092;2024-03-17T01:18:33;101780.41;;;9.87;100.00
84653;BME280;74883;48.882;2.092;2024-03-17T01:21:00;101774.38;;;9.85;100.00
84653;BME280;74883;48.882;2.092;2024-03-17T01:23:25;101771.75;;;9.87;100.00
84653;BME280;74883;48.882;2.092;2024-03-17T01:25:50;101767.41;;;9.87;100.00
84653;BME280;74883;48.882;2.092;2024-03-17T01:28:16;101764.00;;;9.85;100.00
84653;BME280;74883;48.882;2.092;2024-03-17T01:30:41;101763.19;;;9.85;100.00
84653;BME280;74883;48.882;2.092;2024-03-17T01:33:06;101757.91;;;9.86;100.00
84653;BME280;74883;48.882;2.092;2024-03-17T01:35:33;101761.53;;;9.82;100.00
84653;BME280;74883;48.882;2.092;2024-03-17T01:37:58;101755.44;;;9.83;100.00
84653;BME280;74883;48.882;2.092;2024-03-17T01:40:24;101755.56;;;9.80;100.00
84653;BME280;74883;48.882;2.092;2024-03-17T01:42:49;101752.22;;;9.76;100.00
84653;BME280;74883;48.882;2.092;2024-03-17T01:47:43;101747.38;;;9.67;100.00
84653;BME280;74883;48.882;2.092;2024-03-17T01:50:09;101748.38;;;9.63;100.00
84653;BME280;74883;48.882;2.092;2024-03-17T01:52:37;101743.03;;;9.68;100.00
84653;BME280;74883;48.882;2.092;2024-03-17T01:55:03;101747.13;;;9.73;100.00
84653;BME280;74883;48.882;2.092;2024-03-17T01:57:29;101736.75;;;9.73;100.00
84653;BME280;74883;48.882;2.092;2024-03-17T01:59:55;101731.50;;;9.75;100.00
84653;BME280;74883;48.882;2.092;2024-03-17T02:02:21;101726.31;;;9.75;100.00
84653;BME280;74883;48.882;2.092;2024-03-17T02:04:46;101727.97;;;9.77;100.00
84653;BME280;74883;48.882;2.092;2024-03-17T02:07:13;101717.75;;;9.73;100.00
84653;BME280;74883;48.882;2.092;2024-03-17T02:09:40;101719.56;;;9.71;100.00
84653;BME280;74883;48.882;2.092;2024-03-17T02:12:05;101716.91;;;9.72;100.00
84653;BME280;74883;48.882;2.092;2024-03-17T02:14:31;101722.69;;;9.79;100.00
84653;BME280;74883;48.882;2.092;2024-03-17T02:16:56;101719.94;;;9.84;100.00
84653;BME280;74883;48.882;2.092;2024-03-17T02:19:21;101716.28;;;9.89;100.00
84653;BME280;74883;48.882;2.092;2024-03-17T02:21:47;101708.13;;;9.98;100.00
84653;BME280;74883;48.882;2.092;2024-03-17T02:24:12;101704.16;;;10.11;100.00
84653;BME280;74883;48.882;2.092;2024-03-17T02:26:37;101696.19;;;10.16;100.00
84653;BME280;74883;48.882;2.092;2024-03-17T02:29:03;101690.78;;;10.22;100.00
84653;BME280;74883;48.882;2.092;2024-03-17T02:31:29;101687.06;;;10.27;100.00
84653;BME280;74883;48.882;2.092;2024-03-17T02:33:54;101683.72;;;10.45;100.00
84653;BME280;74883;48.882;2.092;2024-03-17T02:36:20;101687.13;;;10.48;100.00
84653;BME280;74883;48.882;2.092;2024-03-17T02:38:45;101682.56;;;10.53;100.00
84653;BME280;74883;48.882;2.092;2024-03-17T02:41:29;101684.34;;;10.52;100.00
84653;BME280;74883;48.882;2.092;2024-03-17T02:43:55;101685.25;;;10.51;100.00
84653;BME280;74883;48.882;2.092;2024-03-17T02:46:20;101684.19;;;10.55;100.00
84653;BME280;74883;48.882;2.092;2024-03-17T02:48:49;101687.47;;;10.60;100.00
84653;BME280;74883;48.882;2.092;2024-03-17T02:51:19;101666.66;;;10.60;100.00
84653;BME280;74883;48.882;2.092;2024-03-17T02:53:45;101663.38;;;10.57;100.00
84653;BME280;74883;48.882;2.092;2024-03-17T02:56:11;101661.78;;;10.53;100.00
84653;BME280;74883;48.882;2.092;2024-03-17T02:58:38;101662.63;;;10.53;100.00
84653;BME280;74883;48.882;2.092;2024-03-17T03:01:05;101652.22;;;10.53;100.00
84653;BME280;74883;48.882;2.092;2024-03-17T03:03:31;101654.81;;;10.53;100.00
84653;BME280;74883;48.882;2.092;2024-03-17T03:05:57;101650.47;;;10.54;100.00
84653;BME280;74883;48.882;2.092;2024-03-17T03:08:22;101647.00;;;10.55;100.00
84653;BME280;74883;48.882;2.092;2024-03-17T03:10:48;101635.00;;;10.51;100.00
84653;BME280;74883;48.882;2.092;2024-03-17T03:13:13;101638.38;;;10.53;100.00
84653;BME280;74883;48.882;2.092;2024-03-17T03:15:39;101646.19;;;10.53;100.00
84653;BME280;74883;48.882;2.092;2024-03-17T03:18:04;101654.06;;;10.51;100.00
84653;BME280;74883;48.882;2.092;2024-03-17T03:20:30;101667.63;;;10.58;100.00
84653;BME280;74883;48.882;2.092;2024-03-17T03:22:55;101684.78;;;10.62;100.00
84653;BME280;74883;48.882;2.092;2024-03-17T03:25:21;101685.72;;;10.61;100.00
84653;BME280;74883;48.882;2.092;2024-03-17T03:27:47;101677.91;;;10.61;100.00
84653;BME280;74883;48.882;2.092;2024-03-17T03:30:12;101669.56;;;10.53;100.00
84653;BME280;74883;48.882;2.092;2024-03-17T03:32:37;101669.66;;;10.51;100.00
84653;BME280;74883;48.882;2.092;2024-03-17T03:35:04;101668.78;;;10.51;100.00
84653;BME280;74883;48.882;2.092;2024-03-17T03:37:30;101679.34;;;10.48;100.00
84653;BME280;74883;48.882;2.092;2024-03-17T03:39:56;101675.94;;;10.45;100.00
84653;BME280;74883;48.882;2.092;2024-03-17T03:42:21;101676.25;;;10.38;100.00
84653;BME280;74883;48.882;2.092;2024-03-17T03:44:48;101674.75;;;10.32;100.00
84653;BME280;74883;48.882;2.092;2024-03-17T03:47:14;101670.59;;;10.28;100.00
84653;BME280;74883;48.882;2.092;2024-03-17T03:49:40;101671.44;;;10.29;100.00
84653;BME280;74883;48.882;2.092;2024-03-17T03:52:05;101671.38;;;10.30;100.00
84653;BME280;74883;48.882;2.092;2024-03-17T03:54:30;101670.69;;;10.25;100.00
84653;BME280;74883;48.882;2.092;2024-03-17T03:56:56;101668.22;;;10.22;100.00
84653;BME280;74883;48.882;2.092;2024-03-17T03:59:21;101664.66;;;10.25;100.00
84653;BME280;74883;48.882;2.092;2024-03-17T04:01:47;101668.72;;;10.09;100.00
84653;BME280;74883;48.882;2.092;2024-03-17T04:04:14;101670.63;;;10.05;100.00
84653;BME280;74883;48.882;2.092;2024-03-17T04:06:39;101669.66;;;10.08;100.00
84653;BME280;74883;48.882;2.092;2024-03-17T04:09:05;101663.69;;;10.06;100.00
84653;BME280;74883;48.882;2.092;2024-03-17T04:11:33;101662.03;;;10.03;100.00
84653;BME280;74883;48.882;2.092;2024-03-17T04:13:59;101664.66;;;10.03;100.00
84653;BME280;74883;48.882;2.092;2024-03-17T04:16:26;101654.19;;;10.05;100.00
84653;BME280;74883;48.882;2.092;2024-03-17T04:18:52;101653.28;;;10.06;100.00
84653;BME280;74883;48.882;2.092;2024-03-17T04:21:17;101654.91;;;10.08;100.00
84653;BME280;74883;48.882;2.092;2024-03-17T04:23:43;101654.00;;;10.09;100.00
84653;BME280;74883;48.882;2.092;2024-03-17T04:26:09;101647.09;;;10.08;100.00
84653;BME280;74883;48.882;2.092;2024-03-17T04:28:34;101646.31;;;10.06;100.00
84653;BME280;74883;48.882;2.092;2024-03-17T04:31:05;101643.09;;;10.01;100.00
84653;BME280;74883;48.882;2.092;2024-03-17T04:33:34;101641.00;;;10.09;100.00
84653;BME280;74883;48.882;2.092;2024-03-17T04:36:00;101651.41;;;10.09;100.00
84653;BME280;74883;48.882;2.092;2024-03-17T04:38:27;101646.31;;;10.06;100.00
84653;BME280;74883;48.882;2.092;2024-03-17T04:40:53;101635.16;;;10.04;100.00
84653;BME280;74883;48.882;2.092;2024-03-17T04:43:30;101629.84;;;10.07;100.00
84653;BME280;74883;48.882;2.092;2024-03-17T04:46:01;101640.00;;;10.13;100.00
84653;BME280;74883;48.882;2.092;2024-03-17T04:48:28;101632.38;;;10.09;100.00
84653;BME280;74883;48.882;2.092;2024-03-17T04:50:53;101635.16;;;10.04;100.00
84653;BME280;74883;48.882;2.092;2024-03-17T04:53:19;101630.69;;;10.08;100.00
84653;BME280;74883;48.882;2.092;2024-03-17T04:55:45;101633.22;;;10.09;100.00
84653;BME280;74883;48.882;2.092;2024-03-17T04:58:10;101624.41;;;10.13;100.00
84653;BME280;74883;48.882;2.092;2024-03-17T05:00:36;101619.22;;;10.13;100.00
84653;BME280;74883;48.882;2.092;2024-03-17T05:03:01;101618.44;;;10.11;100.00
84653;BME280;74883;48.882;2.092;2024-03-17T05:05:27;101626.31;;;10.08;100.00
84653;BME280;74883;48.882;2.092;2024-03-17T05:07:52;101622.75;;;10.12;100.00
84653;BME280;74883;48.882;2.092;2024-03-17T05:10:18;101617.56;;;10.11;100.00
84653;BME280;74883;48.882;2.092;2024-03-17T05:12:44;101625.28;;;10.14;100.00
84653;BME280;74883;48.882;2.092;2024-03-17T05:15:10;101620.94;;;10.14;100.00
84653;BME280;74883;48.882;2.092;2024-03-17T05:17:35;101628.66;;;10.16;100.00
84653;BME280;74883;48.882;2.092;2024-03-17T05:20:01;101621.72;;;10.16;100.00
84653;BME280;74883;48.882;2.092;2024-03-17T05:22:27;101619.00;;;10.19;100.00
84653;BME280;74883;48.882;2.092;2024-03-17T05:24:52;101613.66;;;10.22;100.00
84653;BME280;74883;48.882;2.092;2024-03-17T05:27:18;101618.03;;;10.22;100.00
84653;BME280;74883;48.882;2.092;2024-03-17T05:29:44;101606.66;;;10.24;100.00
84653;BME280;74883;48.882;2.092;2024-03-17T05:32:09;101604.19;;;10.21;100.00
84653;BME280;74883;48.882;2.092;2024-03-17T05:34:35;101604.19;;;10.21;100.00
84653;BME280;74883;48.882;2.092;2024-03-17T05:37:00;101594.66;;;10.22;100.00
84653;BME280;74883;48.882;2.092;2024-03-17T05:39:27;101601.59;;;10.21;100.00
84653;BME280;74883;48.882;2.092;2024-03-17T05:41:52;101605.94;;;10.21;100.00
84653;BME280;74883;48.882;2.092;2024-03-17T05:44:18;101610.44;;;10.17;100.00
84653;BME280;74883;48.882;2.092;2024-03-17T05:46:43;101617.38;;;10.17;100.00
84653;BME280;74883;48.882;2.092;2024-03-17T05:49:08;101609.78;;;10.11;100.00
84653;BME280;74883;48.882;2.092;2024-03-17T05:51:34;101609.69;;;10.14;100.00
84653;BME280;74883;48.882;2.092;2024-03-17T05:53:59;101611.53;;;10.10;100.00
84653;BME280;74883;48.882;2.092;2024-03-17T05:56:25;101605.50;;;10.10;100.00
84653;BME280;74883;48.882;2.092;2024-03-17T05:58:50;101611.59;;;10.09;100.00
84653;BME280;74883;48.882;2.092;2024-03-17T06:01:15;101612.44;;;10.09;100.00
84653;BME280;74883;48.882;2.092;2024-03-17T06:03:41;101607.25;;;10.09;100.00
84653;BME280;74883;48.882;2.092;2024-03-17T06:06:08;101602.94;;;10.08;100.00
84653;BME280;74883;48.882;2.092;2024-03-17T06:08:37;101606.38;;;10.09;100.00
84653;BME280;74883;48.882;2.092;2024-03-17T06:11:04;101604.56;;;10.11;100.00
84653;BME280;74883;48.882;2.092;2024-03-17T06:13:30;101609.56;;;10.17;100.00
84653;BME280;74883;48.882;2.092;2024-03-17T06:15:55;101616.31;;;10.21;100.00
84653;BME280;74883;48.882;2.092;2024-03-17T06:18:26;101617.22;;;10.20;100.00
84653;BME280;74883;48.882;2.092;2024-03-17T06:20:51;101617.22;;;10.20;100.00
84653;BME280;74883;48.882;2.092;2024-03-17T06:23:16;101618.16;;;10.19;100.00
84653;BME280;74883;48.882;2.092;2024-03-17T06:25:43;101620.81;;;10.17;100.00
84653;BME280;74883;48.882;2.092;2024-03-17T06:28:09;101618.91;;;10.21;100.00
84653;BME280;74883;48.882;2.092;2024-03-17T06:30:41;101621.59;;;10.19;100.00
84653;BME280;74883;48.882;2.092;2024-03-17T06:33:08;101618.84;;;10.22;100.00
84653;BME280;74883;48.882;2.092;2024-03-17T06:35:36;101614.69;;;10.18;100.00
84653;BME280;74883;48.882;2.092;2024-03-17T06:38:02;101602.47;;;10.20;100.00
84653;BME280;74883;48.882;2.092;2024-03-17T06:40:27;101608.59;;;10.19;100.00
84653;BME280;74883;48.882;2.092;2024-03-17T06:42:53;101614.63;;;10.20;100.00
84653;BME280;74883;48.882;2.092;2024-03-17T06:45:19;101622.25;;;10.24;100.00
84653;BME280;74883;48.882;2.092;2024-03-17T06:47:47;101620.63;;;10.22;100.00
84653;BME280;74883;48.882;2.092;2024-03-17T06:50:13;101621.59;;;10.19;100.00
84653;BME280;74883;48.882;2.092;2024-03-17T06:52:38;101616.50;;;10.16;100.00
84653;BME280;74883;48.882;2.092;2024-03-17T06:55:05;101615.47;;;10.20;100.00
84653;BME280;74883;48.882;2.092;2024-03-17T06:57:32;101613.81;;;10.19;100.00
84653;BME280;74883;48.882;2.092;2024-03-17T06:59:59;101608.59;;;10.19;100.00
84653;BME280;74883;48.882;2.092;2024-03-17T07:02:24;101599.88;;;10.20;100.00
84653;BME280;74883;48.882;2.092;2024-03-17T07:04:49;101598.88;;;10.24;100.00
84653;BME280;74883;48.882;2.092;2024-03-17T07:07:15;101600.47;;;10.27;100.00
84653;BME280;74883;48.882;2.092;2024-03-17T07:09:41;101599.47;;;10.31;100.00
84653;BME280;74883;48.882;2.092;2024-03-17T07:12:10;101604.50;;;10.34;100.00
84653;BME280;74883;48.882;2.092;2024-03-17T07:14:36;101601.09;;;10.33;100.00
84653;BME280;74883;48.882;2.092;2024-03-17T07:17:02;101604.47;;;10.35;100.00
84653;BME280;74883;48.882;2.092;2024-03-17T07:19:27;101607.75;;;10.39;100.00
84653;BME280;74883;48.882;2.092;2024-03-17T07:21:54;101616.41;;;10.39;100.00
84653;BME280;74883;48.882;2.092;2024-03-17T07:24:20;101612.91;;;10.40;100.00
84653;BME280;74883;48.882;2.092;2024-03-17T07:26:47;101606.13;;;10.36;100.00
84653;BME280;74883;48.882;2.092;2024-03-17T07:29:13;101605.94;;;10.41;100.00
84653;BME280;74883;48.882;2.092;2024-03-17T07:31:39;101618.94;;;10.41;100.00
84653;BME280;74883;48.882;2.092;2024-03-17T07:34:04;101617.25;;;10.40;100.00
84653;BME280;74883;48.882;2.092;2024-03-17T07:36:29;101615.53;;;10.40;100.00
84653;BME280;74883;48.882;2.092;2024-03-17T07:38:55;101613.69;;;10.42;100.00
84653;BME280;74883;48.882;2.092;2024-03-17T07:41:20;101612.78;;;10.43;100.00
84653;BME280;74883;48.882;2.092;2024-03-17T07:43:45;101594.38;;;10.48;100.00
84653;BME280;74883;48.882;2.092;2024-03-17T07:46:12;101600.25;;;10.53;100.00
84653;BME280;74883;48.882;2.092;2024-03-17T07:48:42;101608.78;;;10.57;100.00
84653;BME280;74883;48.882;2.092;2024-03-17T07:51:10;101602.97;;;10.50;100.00
84653;BME280;74883;48.882;2.092;2024-03-17T07:53:37;101604.38;;;10.57;100.00
84653;BME280;74883;48.882;2.092;2024-03-17T07:58:31;101601.44;;;10.66;100.00
84653;BME280;74883;48.882;2.092;2024-03-17T08:00:59;101603.19;;;10.66;100.00
84653;BME280;74883;48.882;2.092;2024-03-17T08:03:26;101605.56;;;10.70;100.00
84653;BME280;74883;48.882;2.092;2024-03-17T08:05:52;101602.97;;;10.70;100.00
84653;BME280;74883;48.882;2.092;2024-03-17T08:08:18;101604.59;;;10.73;100.00
84653;BME280;74883;48.882;2.092;2024-03-17T08:10:43;101604.53;;;10.74;100.00
84653;BME280;74883;48.882;2.092;2024-03-17T08:13:09;101605.44;;;10.73;100.00
84653;BME280;74883;48.882;2.092;2024-03-17T08:15:35;101609.06;;;10.69;100.00
84653;BME280;74883;48.882;2.092;2024-03-17T08:18:00;101604.44;;;10.76;100.00
84653;BME280;74883;48.882;2.092;2024-03-17T08:20:25;101609.41;;;10.82;100.00
84653;BME280;74883;48.882;2.092;2024-03-17T08:22:51;101606.03;;;10.80;100.00
84653;BME280;74883;48.882;2.092;2024-03-17T08:25:17;101603.91;;;10.88;100.00
84653;BME280;74883;48.882;2.092;2024-03-17T08:27:42;101597.75;;;10.90;100.00
84653;BME280;74883;48.882;2.092;2024-03-17T08:30:11;101598.47;;;10.94;100.00
84653;BME280;74883;48.882;2.092;2024-03-17T08:32:36;101597.75;;;10.90;100.00
84653;BME280;74883;48.882;2.092;2024-03-17T08:35:02;101595.66;;;10.98;100.00
84653;BME280;74883;48.882;2.092;2024-03-17T08:37:27;101592.97;;;11.00;100.00
84653;BME280;74883;48.882;2.092;2024-03-17T08:39:53;101583.63;;;10.96;100.00
84653;BME280;74883;48.882;2.092;2024-03-17T08:42:18;101582.13;;;10.90;100.00
84653;BME280;74883;48.882;2.092;2024-03-17T08:44:46;101584.16;;;10.84;100.00
84653;BME280;74883;48.882;2.092;2024-03-17T08:47:12;101576.84;;;10.92;100.00
84653;BME280;74883;48.882;2.092;2024-03-17T08:49:37;101580.97;;;10.97;100.00
84653;BME280;74883;48.882;2.092;2024-03-17T08:52:03;101586.06;;;10.99;100.00
84653;BME280;74883;48.882;2.092;2024-03-17T08:54:28;101584.97;;;11.04;100.00
84653;BME280;74883;48.882;2.092;2024-03-17T08:56:53;101581.47;;;11.05;100.00
84653;BME280;74883;48.882;2.092;2024-03-17T08:59:19;101585.69;;;11.08;100.00
84653;BME280;74883;48.882;2.092;2024-03-17T09:01:44;101574.44;;;11.07;100.00
84653;BME280;74883;48.882;2.092;2024-03-17T09:04:10;101571.69;;;11.10;100.00
84653;BME280;74883;48.882;2.092;2024-03-17T09:06:36;101572.28;;;11.17;100.00
84653;BME280;74883;48.882;2.092;2024-03-17T09:09:02;101568.59;;;11.21;100.00
84653;BME280;74883;48.882;2.092;2024-03-17T09:11:28;101569.25;;;11.26;100.00
84653;BME280;74883;48.882;2.092;2024-03-17T09:13:54;101565.03;;;11.24;100.00
84653;BME280;74883;48.882;2.092;2024-03-17T09:16:20;101567.84;;;11.19;100.00
84653;BME280;74883;48.882;2.092;2024-03-17T09:18:48;101567.13;;;11.15;100.00
84653;BME280;74883;48.882;2.092;2024-03-17T09:21:14;101559.88;;;11.22;100.00
84653;BME280;74883;48.882;2.092;2024-03-17T09:23:41;101565.59;;;11.30;100.00
84653;BME280;74883;48.882;2.092;2024-03-17T09:26:08;101565.88;;;11.24;100.00
84653;BME280;74883;48.882;2.092;2024-03-17T09:28:35;101560.66;;;11.24;100.00
84653;BME280;74883;48.882;2.092;2024-03-17T09:31:00;101566.56;;;11.28;100.00
84653;BME280;74883;48.882;2.092;2024-03-17T09:33:27;101561.50;;;11.25;100.00
84653;BME280;74883;48.882;2.092;2024-03-17T09:36:00;101573.25;;;11.33;100.00
84653;BME280;74883;48.882;2.092;2024-03-17T09:38:27;101567.19;;;11.33;100.00
84653;BME280;74883;48.882;2.092;2024-03-17T09:40:53;101577.41;;;11.37;100.00
84653;BME280;74883;48.882;2.092;2024-03-17T09:43:22;101565.28;;;11.36;100.00
84653;BME280;74883;48.882;2.092;2024-03-17T09:45:51;101559.53;;;11.30;100.00
84653;BME280;74883;48.882;2.092;2024-03-17T09:48:24;101562.69;;;11.36;100.00
84653;BME280;74883;48.882;2.092;2024-03-17T09:50:50;101553.88;;;11.39;100.00
84653;BME280;74883;48.882;2.092;2024-03-17T09:53:34;101555.59;;;11.40;100.00
84653;BME280;74883;48.882;2.092;2024-03-17T09:56:09;101563.31;;;11.41;100.00
84653;BME280;74883;48.882;2.092;2024-03-17T09:58:36;101560.06;;;11.36;100.00
84653;BME280;74883;48.882;2.092;2024-03-17T10:01:01;101566.28;;;11.34;100.00
84653;BME280;74883;48.882;2.092;2024-03-17T10:06:17;101559.19;;;11.37;100.00
84653;BME280;74883;48.882;2.092;2024-03-17T10:08:47;101562.69;;;11.36;100.00
84653;BME280;74883;48.882;2.092;2024-03-17T10:11:17;101558.19;;;11.40;100.00
84653;BME280;74883;48.882;2.092;2024-03-17T10:13:44;101563.88;;;11.48;100.00
84653;BME280;74883;48.882;2.092;2024-03-17T10:16:26;101549.88;;;11.50;100.00
84653;BME280;74883;48.882;2.092;2024-03-17T10:21:40;101545.19;;;11.40;100.00
84653;BME280;74883;48.882;2.092;2024-03-17T10:24:26;101545.81;;;11.45;100.00
84653;BME280;74883;48.882;2.092;2024-03-17T10:29:25;101552.63;;;11.47;100.00
84653;BME280;74883;48.882;2.092;2024-03-17T10:31:55;101548.19;;;11.49;100.00
84653;BME280;74883;48.882;2.092;2024-03-17T10:34:21;101542.38;;;11.44;100.00
84653;BME280;74883;48.882;2.092;2024-03-17T10:36:50;101537.56;;;11.54;100.00
84653;BME280;74883;48.882;2.092;2024-03-17T10:39:26;101541.69;;;11.58;100.00
84653;BME280;74883;48.882;2.092;2024-03-17T10:42:01;101544.75;;;11.49;100.00
84653;BME280;74883;48.882;2.092;2024-03-17T10:44:36;101542.78;;;11.54;100.00
84653;BME280;74883;48.882;2.092;2024-03-17T10:47:03;101540.22;;;11.52;100.00
84653;BME280;74883;48.882;2.092;2024-03-17T10:49:35;101540.22;;;11.52;100.00
84653;BME280;74883;48.882;2.092;2024-03-17T10:52:02;101547.00;;;11.56;100.00
84653;BME280;74883;48.882;2.092;2024-03-17T10:54:30;101545.44;;;11.52;100.00
84653;BME280;74883;48.882;2.092;2024-03-17T10:56:57;101534.88;;;11.55;100.00
84653;BME280;74883;48.882;2.092;2024-03-17T10:59:34;101529.66;;;11.55;100.00
84653;BME280;74883;48.882;2.092;2024-03-17T11:02:07;101535.88;;;11.53;100.00
84653;BME280;74883;48.882;2.092;2024-03-17T11:04:39;101523.63;;;11.55;100.00
84653;BME280;74883;48.882;2.092;2024-03-17T11:07:05;101524.47;;;11.55;100.00
84653;BME280;74883;48.882;2.092;2024-03-17T11:09:32;101529.41;;;11.61;100.00
84653;BME280;74883;48.882;2.092;2024-03-17T11:11:57;101517.91;;;11.65;100.00
84653;BME280;74883;48.882;2.092;2024-03-17T11:14:24;101522.50;;;11.60;100.00
84653;BME280;74883;48.882;2.092;2024-03-17T11:16:49;101519.56;;;11.68;100.00
84653;BME280;74883;48.882;2.092;2024-03-17T11:19:16;101524.47;;;11.74;100.00
84653;BME280;74883;48.882;2.092;2024-03-17T11:21:42;101518.75;;;11.66;100.00
84653;BME280;74883;48.882;2.092;2024-03-17T11:24:19;101505.59;;;11.69;100.00
84653;BME280;74883;48.882;2.092;2024-03-17T11:26:45;101502.94;;;11.70;100.00
84653;BME280;74883;48.882;2.092;2024-03-17T11:29:29;101500.13;;;11.75;100.00
84653;BME280;74883;48.882;2.092;2024-03-17T11:31:55;101499.13;;;11.77;100.00
84653;BME280;74883;48.882;2.092;2024-03-17T11:34:39;101500.16;;;11.73;100.00
84653;BME280;74883;48.882;2.092;2024-03-17T11:37:05;101494.19;;;11.71;100.00
84653;BME280;74883;48.882;2.092;2024-03-17T11:39:47;101492.06;;;11.79;100.00
84653;BME280;74883;48.882;2.092;2024-03-17T11:42:15;101489.38;;;11.81;100.00
84653;BME280;74883;48.882;2.092;2024-03-17T11:47:39;101479.50;;;11.88;100.00
84653;BME280;74883;48.882;2.092;2024-03-17T11:50:06;101481.47;;;11.82;100.00
84653;BME280;74883;48.882;2.092;2024-03-17T11:52:33;101475.38;;;11.83;100.00
84653;BME280;74883;48.882;2.092;2024-03-17T11:54:59;101470.84;;;11.70;100.00
84653;BME280;74883;48.882;2.092;2024-03-17T11:57:25;101476.28;;;11.64;100.00
84653;BME280;74883;48.882;2.092;2024-03-17T11:59:52;101475.19;;;11.69;100.00
84653;BME280;74883;48.882;2.092;2024-03-17T12:04:52;101466.09;;;11.78;100.00
84653;BME280;74883;48.882;2.092;2024-03-17T12:07:19;101475.75;;;11.76;100.00
84653;BME280;74883;48.882;2.092;2024-03-17T12:09:46;101467.69;;;11.80;100.00
84653;BME280;74883;48.882;2.092;2024-03-17T12:12:17;101474.81;;;11.77;100.00
84653;BME280;74883;48.882;2.092;2024-03-17T12:14:42;101478.66;;;11.70;100.00
84653;BME280;74883;48.882;2.092;2024-03-17T12:17:10;101478.00;;;11.65;100.00
84653;BME280;74883;48.882;2.092;2024-03-17T12:19:36;101471.75;;;11.69;100.00
84653;BME280;74883;48.882;2.092;2024-03-17T12:22:06;101468.34;;;11.67;100.00
84653;BME280;74883;48.882;2.092;2024-03-17T12:24:36;101468.34;;;11.67;100.00
84653;BME280;74883;48.882;2.092;2024-03-17T12:27:04;101474.44;;;11.67;100.00
84653;BME280;74883;48.882;2.092;2024-03-17T12:29:37;101471.53;;;11.73;100.00
84653;BME280;74883;48.882;2.092;2024-03-17T12:32:09;101463.03;;;11.70;100.00
84653;BME280;74883;48.882;2.092;2024-03-17T12:34:37;101460.19;;;11.74;100.00
84653;BME280;74883;48.882;2.092;2024-03-17T12:37:04;101449.53;;;11.79;100.00
84653;BME280;74883;48.882;2.092;2024-03-17T12:39:31;101444.72;;;11.89;100.00
84653;BME280;74883;48.882;2.092;2024-03-17T12:42:03;101443.63;;;11.93;100.00
84653;BME280;74883;48.882;2.092;2024-03-17T12:44:34;101450.84;;;12.05;100.00
84653;BME280;74883;48.882;2.092;2024-03-17T12:47:04;101435.59;;;12.14;100.00
84653;BME280;74883;48.882;2.092;2024-03-17T12:49:32;101426.28;;;12.26;100.00
84653;BME280;74883;48.882;2.092;2024-03-17T12:52:00;101422.59;;;12.30;100.00
84653;BME280;74883;48.882;2.092;2024-03-17T12:54:27;101425.72;;;12.36;100.00
84653;BME280;74883;48.882;2.092;2024-03-17T12:57:08;101417.34;;;12.47;100.00
84653;BME280;74883;48.882;2.092;2024-03-17T12:59:52;101414.63;;;12.48;100.00